sensor_id;sensor_type;location;lat;lon;timestamp;P1;durP1;ratioP1;P2;durP2;ratioP2
27839;SDS011;15207;42.182;24.308;2022-09-09T00:00:24;15.10;;;8.80;;
27839;SDS011;15207;42.182;24.308;2022-09-09T00:08:06;15.30;;;9.77;;
27839;SDS011;15207;42.182;24.308;2022-09-09T00:16:19;17.45;;;10.05;;
27839;SDS011;15207;42.182;24.308;2022-09-09T00:18:51;14.30;;;9.93;;
27839;SDS011;15207;42.182;24.308;2022-09-09T00:21:26;17.75;;;9.95;;
27839;SDS011;15207;42.182;24.308;2022-09-09T00:24:24;18.20;;;10.00;;
27839;SDS011;15207;42.182;24.308;2022-09-09T00:26:54;11.38;;;9.35;;
27839;SDS011;15207;42.182;24.308;2022-09-09T00:29:28;18.50;;;9.95;;
27839;SDS011;15207;42.182;24.308;2022-09-09T00:32:00;11.68;;;9.55;;
27839;SDS011;15207;42.182;24.308;2022-09-09T00:34:30;12.30;;;9.10;;
27839;SDS011;15207;42.182;24.308;2022-09-09T00:36:58;13.10;;;9.50;;
27839;SDS011;15207;42.182;24.308;2022-09-09T00:39:32;15.68;;;9.85;;
27839;SDS011;15207;42.182;24.308;2022-09-09T00:50:21;12.35;;;9.60;;
27839;SDS011;15207;42.182;24.308;2022-09-09T00:56:20;11.43;;;9.70;;
27839;SDS011;15207;42.182;24.308;2022-09-09T01:01:37;12.80;;;9.40;;
27839;SDS011;15207;42.182;24.308;2022-09-09T01:04:16;14.30;;;9.80;;
27839;SDS011;15207;42.182;24.308;2022-09-09T01:06:50;12.75;;;9.73;;
27839;SDS011;15207;42.182;24.308;2022-09-09T01:09:26;11.80;;;9.90;;
27839;SDS011;15207;42.182;24.308;2022-09-09T01:14:44;11.80;;;8.80;;
27839;SDS011;15207;42.182;24.308;2022-09-09T01:17:20;12.93;;;9.30;;
27839;SDS011;15207;42.182;24.308;2022-09-09T01:19:58;13.70;;;9.55;;
27839;SDS011;15207;42.182;24.308;2022-09-09T01:27:46;18.50;;;10.88;;
27839;SDS011;15207;42.182;24.308;2022-09-09T01:30:14;18.50;;;11.00;;
27839;SDS011;15207;42.182;24.308;2022-09-09T01:32:43;15.75;;;10.15;;
27839;SDS011;15207;42.182;24.308;2022-09-09T01:38:07;12.73;;;9.85;;
27839;SDS011;15207;42.182;24.308;2022-09-09T01:40:33;13.30;;;10.30;;
27839;SDS011;15207;42.182;24.308;2022-09-09T01:42:59;12.77;;;9.43;;
27839;SDS011;15207;42.182;24.308;2022-09-09T01:45:25;18.65;;;10.35;;
27839;SDS011;15207;42.182;24.308;2022-09-09T01:47:51;13.93;;;9.93;;
27839;SDS011;15207;42.182;24.308;2022-09-09T01:50:18;14.25;;;9.25;;
27839;SDS011;15207;42.182;24.308;2022-09-09T01:52:45;11.60;;;9.30;;
27839;SDS011;15207;42.182;24.308;2022-09-09T01:55:16;14.85;;;9.90;;
27839;SDS011;15207;42.182;24.308;2022-09-09T02:00:24;14.70;;;10.00;;
27839;SDS011;15207;42.182;24.308;2022-09-09T02:03:06;12.80;;;9.45;;
27839;SDS011;15207;42.182;24.308;2022-09-09T02:05:39;11.88;;;9.68;;
27839;SDS011;15207;42.182;24.308;2022-09-09T02:08:20;14.00;;;10.30;;
27839;SDS011;15207;42.182;24.308;2022-09-09T02:11:05;11.35;;;9.30;;
27839;SDS011;15207;42.182;24.308;2022-09-09T02:13:35;21.15;;;10.82;;
27839;SDS011;15207;42.182;24.308;2022-09-09T02:16:18;18.50;;;9.80;;
27839;SDS011;15207;42.182;24.308;2022-09-09T02:24:05;13.13;;;10.77;;
27839;SDS011;15207;42.182;24.308;2022-09-09T02:26:37;12.00;;;9.50;;
27839;SDS011;15207;42.182;24.308;2022-09-09T02:29:07;16.60;;;11.00;;
27839;SDS011;15207;42.182;24.308;2022-09-09T02:31:45;13.60;;;10.50;;
27839;SDS011;15207;42.182;24.308;2022-09-09T02:34:12;13.60;;;9.45;;
27839;SDS011;15207;42.182;24.308;2022-09-09T02:36:41;15.60;;;11.20;;
27839;SDS011;15207;42.182;24.308;2022-09-09T02:39:10;16.85;;;11.55;;
27839;SDS011;15207;42.182;24.308;2022-09-09T02:41:38;15.20;;;11.05;;
27839;SDS011;15207;42.182;24.308;2022-09-09T02:44:08;14.65;;;11.05;;
27839;SDS011;15207;42.182;24.308;2022-09-09T02:46:45;15.70;;;12.03;;
27839;SDS011;15207;42.182;24.308;2022-09-09T02:49:44;14.40;;;11.40;;
27839;SDS011;15207;42.182;24.308;2022-09-09T02:52:20;15.57;;;10.65;;
27839;SDS011;15207;42.182;24.308;2022-09-09T02:54:59;14.65;;;11.02;;
27839;SDS011;15207;42.182;24.308;2022-09-09T02:57:31;13.70;;;10.30;;
27839;SDS011;15207;42.182;24.308;2022-09-09T02:59:59;16.75;;;10.35;;
27839;SDS011;15207;42.182;24.308;2022-09-09T03:02:26;14.35;;;10.00;;
27839;SDS011;15207;42.182;24.308;2022-09-09T03:04:52;12.88;;;10.45;;
27839;SDS011;15207;42.182;24.308;2022-09-09T03:07:18;15.80;;;10.90;;
27839;SDS011;15207;42.182;24.308;2022-09-09T03:09:44;14.73;;;10.25;;
27839;SDS011;15207;42.182;24.308;2022-09-09T03:12:10;15.00;;;10.75;;
27839;SDS011;15207;42.182;24.308;2022-09-09T03:14:37;21.10;;;11.70;;
27839;SDS011;15207;42.182;24.308;2022-09-09T03:17:03;16.75;;;11.20;;
27839;SDS011;15207;42.182;24.308;2022-09-09T03:19:30;15.43;;;10.60;;
27839;SDS011;15207;42.182;24.308;2022-09-09T03:21:56;16.17;;;10.97;;
27839;SDS011;15207;42.182;24.308;2022-09-09T03:26:49;14.40;;;11.00;;
27839;SDS011;15207;42.182;24.308;2022-09-09T03:29:15;15.30;;;10.80;;
27839;SDS011;15207;42.182;24.308;2022-09-09T03:31:43;15.05;;;10.70;;
27839;SDS011;15207;42.182;24.308;2022-09-09T03:34:09;13.85;;;10.10;;
27839;SDS011;15207;42.182;24.308;2022-09-09T03:36:35;13.45;;;11.00;;
27839;SDS011;15207;42.182;24.308;2022-09-09T03:39:00;13.60;;;10.20;;
27839;SDS011;15207;42.182;24.308;2022-09-09T03:41:28;11.75;;;9.10;;
27839;SDS011;15207;42.182;24.308;2022-09-09T03:43:54;13.10;;;9.70;;
27839;SDS011;15207;42.182;24.308;2022-09-09T03:46:20;12.18;;;9.20;;
27839;SDS011;15207;42.182;24.308;2022-09-09T03:48:47;11.30;;;9.40;;
27839;SDS011;15207;42.182;24.308;2022-09-09T03:51:12;15.35;;;9.88;;
27839;SDS011;15207;42.182;24.308;2022-09-09T03:53:38;12.00;;;9.45;;
27839;SDS011;15207;42.182;24.308;2022-09-09T03:58:32;14.80;;;9.90;;
27839;SDS011;15207;42.182;24.308;2022-09-09T04:03:24;13.02;;;9.70;;
27839;SDS011;15207;42.182;24.308;2022-09-09T04:05:53;14.50;;;8.95;;
27839;SDS011;15207;42.182;24.308;2022-09-09T04:08:20;13.60;;;9.80;;
27839;SDS011;15207;42.182;24.308;2022-09-09T04:10:49;12.90;;;9.40;;
27839;SDS011;15207;42.182;24.308;2022-09-09T04:13:15;11.80;;;9.10;;
27839;SDS011;15207;42.182;24.308;2022-09-09T04:15:43;12.10;;;9.30;;
27839;SDS011;15207;42.182;24.308;2022-09-09T04:18:10;13.65;;;8.85;;
27839;SDS011;15207;42.182;24.308;2022-09-09T04:20:36;14.95;;;10.40;;
27839;SDS011;15207;42.182;24.308;2022-09-09T04:23:03;13.20;;;10.10;;
27839;SDS011;15207;42.182;24.308;2022-09-09T04:25:28;17.90;;;10.00;;
27839;SDS011;15207;42.182;24.308;2022-09-09T04:27:54;14.50;;;10.20;;
27839;SDS011;15207;42.182;24.308;2022-09-09T04:30:21;12.90;;;10.60;;
27839;SDS011;15207;42.182;24.308;2022-09-09T04:32:49;16.02;;;11.25;;
27839;SDS011;15207;42.182;24.308;2022-09-09T04:35:15;15.43;;;11.38;;
27839;SDS011;15207;42.182;24.308;2022-09-09T04:37:40;14.95;;;11.40;;
27839;SDS011;15207;42.182;24.308;2022-09-09T04:40:06;16.80;;;11.10;;
27839;SDS011;15207;42.182;24.308;2022-09-09T04:42:37;16.73;;;11.07;;
27839;SDS011;15207;42.182;24.308;2022-09-09T04:45:04;18.30;;;10.50;;
27839;SDS011;15207;42.182;24.308;2022-09-09T04:49:57;13.93;;;11.02;;
27839;SDS011;15207;42.182;24.308;2022-09-09T04:52:23;13.35;;;10.35;;
27839;SDS011;15207;42.182;24.308;2022-09-09T04:54:48;14.05;;;9.88;;
27839;SDS011;15207;42.182;24.308;2022-09-09T04:57:14;15.02;;;9.85;;
27839;SDS011;15207;42.182;24.308;2022-09-09T04:59:39;13.80;;;9.60;;
27839;SDS011;15207;42.182;24.308;2022-09-09T05:02:05;13.05;;;9.55;;
27839;SDS011;15207;42.182;24.308;2022-09-09T05:04:31;17.00;;;9.50;;
27839;SDS011;15207;42.182;24.308;2022-09-09T05:06:58;16.70;;;9.70;;
27839;SDS011;15207;42.182;24.308;2022-09-09T05:11:49;16.80;;;9.10;;
27839;SDS011;15207;42.182;24.308;2022-09-09T05:16:41;17.60;;;8.80;;
27839;SDS011;15207;42.182;24.308;2022-09-09T05:19:09;15.33;;;8.97;;
27839;SDS011;15207;42.182;24.308;2022-09-09T05:21:35;12.48;;;8.57;;
27839;SDS011;15207;42.182;24.308;2022-09-09T05:24:01;9.32;;;7.63;;
27839;SDS011;15207;42.182;24.308;2022-09-09T05:26:26;12.23;;;8.43;;
27839;SDS011;15207;42.182;24.308;2022-09-09T05:28:54;9.32;;;7.30;;
27839;SDS011;15207;42.182;24.308;2022-09-09T05:31:20;9.40;;;7.50;;
27839;SDS011;15207;42.182;24.308;2022-09-09T05:36:14;9.10;;;7.50;;
27839;SDS011;15207;42.182;24.308;2022-09-09T05:38:44;12.45;;;7.60;;
27839;SDS011;15207;42.182;24.308;2022-09-09T05:41:10;11.00;;;7.10;;
27839;SDS011;15207;42.182;24.308;2022-09-09T05:43:37;11.05;;;6.85;;
27839;SDS011;15207;42.182;24.308;2022-09-09T05:46:04;8.70;;;6.70;;
27839;SDS011;15207;42.182;24.308;2022-09-09T05:48:33;9.70;;;6.85;;
27839;SDS011;15207;42.182;24.308;2022-09-09T05:51:00;9.00;;;7.00;;
27839;SDS011;15207;42.182;24.308;2022-09-09T05:53:28;12.05;;;6.60;;
27839;SDS011;15207;42.182;24.308;2022-09-09T05:55:58;7.93;;;5.60;;
27839;SDS011;15207;42.182;24.308;2022-09-09T05:58:29;8.60;;;6.10;;
27839;SDS011;15207;42.182;24.308;2022-09-09T06:01:07;10.47;;;6.10;;
27839;SDS011;15207;42.182;24.308;2022-09-09T06:03:39;8.40;;;5.10;;
27839;SDS011;15207;42.182;24.308;2022-09-09T06:06:16;6.75;;;5.70;;
27839;SDS011;15207;42.182;24.308;2022-09-09T06:08:46;6.90;;;4.90;;
27839;SDS011;15207;42.182;24.308;2022-09-09T06:13:42;11.50;;;5.50;;
27839;SDS011;15207;42.182;24.308;2022-09-09T06:16:09;6.82;;;4.88;;
27839;SDS011;15207;42.182;24.308;2022-09-09T06:18:40;8.10;;;4.70;;
27839;SDS011;15207;42.182;24.308;2022-09-09T06:21:07;8.20;;;4.30;;
27839;SDS011;15207;42.182;24.308;2022-09-09T06:23:42;7.80;;;5.00;;
27839;SDS011;15207;42.182;24.308;2022-09-09T06:26:25;8.00;;;3.92;;
27839;SDS011;15207;42.182;24.308;2022-09-09T06:28:52;5.43;;;3.78;;
27839;SDS011;15207;42.182;24.308;2022-09-09T06:31:19;22.20;;;4.80;;
27839;SDS011;15207;42.182;24.308;2022-09-09T06:36:21;9.40;;;3.90;;
27839;SDS011;15207;42.182;24.308;2022-09-09T06:38:48;7.45;;;3.90;;
27839;SDS011;15207;42.182;24.308;2022-09-09T06:41:15;6.90;;;4.05;;
27839;SDS011;15207;42.182;24.308;2022-09-09T06:46:10;5.40;;;4.10;;
27839;SDS011;15207;42.182;24.308;2022-09-09T06:48:38;7.03;;;4.22;;
27839;SDS011;15207;42.182;24.308;2022-09-09T06:51:19;5.60;;;4.00;;
27839;SDS011;15207;42.182;24.308;2022-09-09T06:53:52;6.30;;;4.20;;
27839;SDS011;15207;42.182;24.308;2022-09-09T06:56:23;11.40;;;4.30;;
27839;SDS011;15207;42.182;24.308;2022-09-09T06:58:53;6.83;;;4.97;;
27839;SDS011;15207;42.182;24.308;2022-09-09T07:01:23;11.25;;;4.88;;
27839;SDS011;15207;42.182;24.308;2022-09-09T07:03:50;8.63;;;4.93;;
27839;SDS011;15207;42.182;24.308;2022-09-09T07:08:49;6.70;;;4.60;;
27839;SDS011;15207;42.182;24.308;2022-09-09T07:11:16;7.35;;;4.75;;
27839;SDS011;15207;42.182;24.308;2022-09-09T07:13:41;8.35;;;4.80;;
27839;SDS011;15207;42.182;24.308;2022-09-09T07:16:08;6.60;;;4.10;;
27839;SDS011;15207;42.182;24.308;2022-09-09T07:18:36;8.80;;;3.40;;
27839;SDS011;15207;42.182;24.308;2022-09-09T07:21:02;5.05;;;3.00;;
27839;SDS011;15207;42.182;24.308;2022-09-09T07:25:58;5.60;;;3.00;;
27839;SDS011;15207;42.182;24.308;2022-09-09T07:28:24;4.20;;;2.80;;
27839;SDS011;15207;42.182;24.308;2022-09-09T07:30:56;5.10;;;3.20;;
27839;SDS011;15207;42.182;24.308;2022-09-09T07:33:24;4.22;;;2.45;;
27839;SDS011;15207;42.182;24.308;2022-09-09T07:35:50;3.67;;;2.75;;
27839;SDS011;15207;42.182;24.308;2022-09-09T07:38:17;5.70;;;2.60;;
27839;SDS011;15207;42.182;24.308;2022-09-09T07:40:43;6.77;;;2.57;;
27839;SDS011;15207;42.182;24.308;2022-09-09T07:45:35;4.70;;;2.45;;
27839;SDS011;15207;42.182;24.308;2022-09-09T07:48:01;3.30;;;2.40;;
27839;SDS011;15207;42.182;24.308;2022-09-09T07:52:54;3.20;;;2.30;;
27839;SDS011;15207;42.182;24.308;2022-09-09T07:55:20;7.85;;;2.75;;
27839;SDS011;15207;42.182;24.308;2022-09-09T07:57:46;4.55;;;2.45;;
27839;SDS011;15207;42.182;24.308;2022-09-09T08:00:12;4.50;;;2.75;;
27839;SDS011;15207;42.182;24.308;2022-09-09T08:02:39;7.15;;;2.83;;
27839;SDS011;15207;42.182;24.308;2022-09-09T08:05:06;4.35;;;2.88;;
27839;SDS011;15207;42.182;24.308;2022-09-09T08:07:32;3.40;;;2.20;;
27839;SDS011;15207;42.182;24.308;2022-09-09T08:09:57;5.15;;;2.38;;
27839;SDS011;15207;42.182;24.308;2022-09-09T08:12:23;5.72;;;2.53;;
27839;SDS011;15207;42.182;24.308;2022-09-09T08:14:49;3.20;;;2.20;;
27839;SDS011;15207;42.182;24.308;2022-09-09T08:17:16;4.45;;;2.45;;
27839;SDS011;15207;42.182;24.308;2022-09-09T08:19:42;4.70;;;2.40;;
27839;SDS011;15207;42.182;24.308;2022-09-09T08:22:07;4.15;;;2.35;;
27839;SDS011;15207;42.182;24.308;2022-09-09T08:24:33;5.55;;;2.70;;
27839;SDS011;15207;42.182;24.308;2022-09-09T08:26:59;3.05;;;2.20;;
27839;SDS011;15207;42.182;24.308;2022-09-09T08:29:24;3.47;;;2.50;;
27839;SDS011;15207;42.182;24.308;2022-09-09T08:31:51;4.20;;;2.40;;
27839;SDS011;15207;42.182;24.308;2022-09-09T08:36:48;3.30;;;2.30;;
27839;SDS011;15207;42.182;24.308;2022-09-09T08:39:17;3.50;;;2.40;;
27839;SDS011;15207;42.182;24.308;2022-09-09T08:51:59;4.72;;;2.95;;
27839;SDS011;15207;42.182;24.308;2022-09-09T08:54:26;3.45;;;2.50;;
27839;SDS011;15207;42.182;24.308;2022-09-09T08:56:58;3.70;;;2.40;;
27839;SDS011;15207;42.182;24.308;2022-09-09T08:59:23;4.25;;;2.70;;
27839;SDS011;15207;42.182;24.308;2022-09-09T09:07:43;5.65;;;2.60;;
27839;SDS011;15207;42.182;24.308;2022-09-09T09:10:46;4.53;;;2.77;;
27839;SDS011;15207;42.182;24.308;2022-09-09T09:15:38;3.33;;;2.45;;
27839;SDS011;15207;42.182;24.308;2022-09-09T09:18:07;10.65;;;3.25;;
27839;SDS011;15207;42.182;24.308;2022-09-09T09:20:51;4.60;;;2.80;;
27839;SDS011;15207;42.182;24.308;2022-09-09T09:23:30;3.65;;;2.50;;
27839;SDS011;15207;42.182;24.308;2022-09-09T09:26:08;4.10;;;2.67;;
27839;SDS011;15207;42.182;24.308;2022-09-09T09:31:06;6.55;;;2.83;;
27839;SDS011;15207;42.182;24.308;2022-09-09T09:36:06;4.45;;;2.60;;
27839;SDS011;15207;42.182;24.308;2022-09-09T09:38:33;3.40;;;2.60;;
27839;SDS011;15207;42.182;24.308;2022-09-09T09:41:00;4.10;;;2.60;;
27839;SDS011;15207;42.182;24.308;2022-09-09T09:43:28;4.45;;;2.80;;
27839;SDS011;15207;42.182;24.308;2022-09-09T09:45:55;4.10;;;3.05;;
27839;SDS011;15207;42.182;24.308;2022-09-09T09:48:25;4.93;;;2.88;;
27839;SDS011;15207;42.182;24.308;2022-09-09T09:51:03;4.80;;;3.00;;
27839;SDS011;15207;42.182;24.308;2022-09-09T09:53:36;7.55;;;2.80;;
27839;SDS011;15207;42.182;24.308;2022-09-09T09:56:05;7.55;;;3.30;;
27839;SDS011;15207;42.182;24.308;2022-09-09T10:03:52;5.05;;;3.05;;
27839;SDS011;15207;42.182;24.308;2022-09-09T10:06:36;29.60;;;4.80;;
27839;SDS011;15207;42.182;24.308;2022-09-09T10:22:34;4.30;;;2.75;;
27839;SDS011;15207;42.182;24.308;2022-09-09T10:25:10;3.80;;;2.90;;
27839;SDS011;15207;42.182;24.308;2022-09-09T10:28:08;4.80;;;3.23;;
27839;SDS011;15207;42.182;24.308;2022-09-09T10:31:05;4.60;;;3.05;;
27839;SDS011;15207;42.182;24.308;2022-09-09T10:36:25;6.45;;;3.45;;
27839;SDS011;15207;42.182;24.308;2022-09-09T10:39:13;7.03;;;3.37;;
27839;SDS011;15207;42.182;24.308;2022-09-09T10:55:16;5.55;;;3.50;;
27839;SDS011;15207;42.182;24.308;2022-09-09T10:57:51;6.00;;;3.45;;
27839;SDS011;15207;42.182;24.308;2022-09-09T11:00:29;5.35;;;3.25;;
27839;SDS011;15207;42.182;24.308;2022-09-09T11:03:09;5.60;;;3.20;;
27839;SDS011;15207;42.182;24.308;2022-09-09T11:05:51;4.53;;;3.13;;
27839;SDS011;15207;42.182;24.308;2022-09-09T11:08:26;10.50;;;3.30;;
27839;SDS011;15207;42.182;24.308;2022-09-09T11:33:19;4.50;;;3.50;;
27839;SDS011;15207;42.182;24.308;2022-09-09T11:41:55;6.20;;;3.10;;
27839;SDS011;15207;42.182;24.308;2022-09-09T11:44:50;3.70;;;2.90;;
27839;SDS011;15207;42.182;24.308;2022-09-09T11:47:23;8.00;;;3.13;;
27839;SDS011;15207;42.182;24.308;2022-09-09T11:52:49;4.70;;;3.20;;
27839;SDS011;15207;42.182;24.308;2022-09-09T11:55:32;5.00;;;3.10;;
27839;SDS011;15207;42.182;24.308;2022-09-09T12:05:38;4.43;;;3.30;;
27839;SDS011;15207;42.182;24.308;2022-09-09T12:08:09;6.00;;;3.20;;
27839;SDS011;15207;42.182;24.308;2022-09-09T12:10:52;7.00;;;3.50;;
27839;SDS011;15207;42.182;24.308;2022-09-09T12:13:21;4.70;;;3.30;;
27839;SDS011;15207;42.182;24.308;2022-09-09T12:18:21;4.35;;;3.30;;
27839;SDS011;15207;42.182;24.308;2022-09-09T12:23:26;3.85;;;3.25;;
27839;SDS011;15207;42.182;24.308;2022-09-09T12:39:31;6.70;;;3.75;;
27839;SDS011;15207;42.182;24.308;2022-09-09T12:42:00;6.75;;;3.55;;
27839;SDS011;15207;42.182;24.308;2022-09-09T12:44:29;5.90;;;3.47;;
27839;SDS011;15207;42.182;24.308;2022-09-09T12:46:56;7.40;;;3.55;;
27839;SDS011;15207;42.182;24.308;2022-09-09T12:49:36;7.85;;;3.40;;
27839;SDS011;15207;42.182;24.308;2022-09-09T12:54:42;6.15;;;3.75;;
27839;SDS011;15207;42.182;24.308;2022-09-09T12:57:12;5.40;;;4.15;;
27839;SDS011;15207;42.182;24.308;2022-09-09T12:59:39;4.20;;;3.30;;
27839;SDS011;15207;42.182;24.308;2022-09-09T13:02:26;5.45;;;3.90;;
27839;SDS011;15207;42.182;24.308;2022-09-09T13:04:53;4.60;;;3.75;;
27839;SDS011;15207;42.182;24.308;2022-09-09T13:07:20;4.10;;;3.70;;
27839;SDS011;15207;42.182;24.308;2022-09-09T13:09:47;5.13;;;3.83;;
27839;SDS011;15207;42.182;24.308;2022-09-09T13:12:23;5.90;;;3.80;;
27839;SDS011;15207;42.182;24.308;2022-09-09T13:14:49;17.60;;;5.40;;
27839;SDS011;15207;42.182;24.308;2022-09-09T13:17:19;5.30;;;3.50;;
27839;SDS011;15207;42.182;24.308;2022-09-09T13:19:47;4.93;;;3.53;;
27839;SDS011;15207;42.182;24.308;2022-09-09T13:22:27;5.90;;;3.90;;
27839;SDS011;15207;42.182;24.308;2022-09-09T13:25:21;4.90;;;3.40;;
27839;SDS011;15207;42.182;24.308;2022-09-09T13:38:27;4.95;;;3.70;;
27839;SDS011;15207;42.182;24.308;2022-09-09T13:40:58;5.80;;;4.00;;
27839;SDS011;15207;42.182;24.308;2022-09-09T13:43:30;6.70;;;3.83;;
27839;SDS011;15207;42.182;24.308;2022-09-09T13:46:01;5.40;;;3.70;;
27839;SDS011;15207;42.182;24.308;2022-09-09T13:48:29;5.30;;;3.70;;
27839;SDS011;15207;42.182;24.308;2022-09-09T13:51:01;5.27;;;3.70;;
27839;SDS011;15207;42.182;24.308;2022-09-09T13:53:30;5.03;;;3.73;;
27839;SDS011;15207;42.182;24.308;2022-09-09T13:55:56;4.10;;;3.30;;
27839;SDS011;15207;42.182;24.308;2022-09-09T13:58:23;5.40;;;3.40;;
27839;SDS011;15207;42.182;24.308;2022-09-09T14:00:50;7.05;;;3.70;;
27839;SDS011;15207;42.182;24.308;2022-09-09T14:03:17;6.00;;;3.90;;
27839;SDS011;15207;42.182;24.308;2022-09-09T14:05:44;5.15;;;4.20;;
27839;SDS011;15207;42.182;24.308;2022-09-09T14:08:14;7.55;;;4.85;;
27839;SDS011;15207;42.182;24.308;2022-09-09T14:10:51;5.40;;;3.90;;
27839;SDS011;15207;42.182;24.308;2022-09-09T14:13:17;10.35;;;4.00;;
27839;SDS011;15207;42.182;24.308;2022-09-09T14:15:43;7.75;;;4.35;;
27839;SDS011;15207;42.182;24.308;2022-09-09T14:18:11;6.00;;;4.70;;
27839;SDS011;15207;42.182;24.308;2022-09-09T14:20:38;9.43;;;4.87;;
27839;SDS011;15207;42.182;24.308;2022-09-09T14:23:04;6.70;;;4.20;;
27839;SDS011;15207;42.182;24.308;2022-09-09T14:25:30;7.30;;;3.90;;
27839;SDS011;15207;42.182;24.308;2022-09-09T14:27:56;6.30;;;4.27;;
27839;SDS011;15207;42.182;24.308;2022-09-09T14:30:22;6.50;;;3.90;;
27839;SDS011;15207;42.182;24.308;2022-09-09T14:32:47;6.60;;;4.10;;
27839;SDS011;15207;42.182;24.308;2022-09-09T14:35:13;7.20;;;3.90;;
27839;SDS011;15207;42.182;24.308;2022-09-09T14:37:39;6.82;;;3.80;;
27839;SDS011;15207;42.182;24.308;2022-09-09T14:40:04;5.10;;;3.80;;
27839;SDS011;15207;42.182;24.308;2022-09-09T14:42:31;6.20;;;3.50;;
27839;SDS011;15207;42.182;24.308;2022-09-09T14:44:56;4.90;;;3.60;;
27839;SDS011;15207;42.182;24.308;2022-09-09T14:47:22;4.35;;;3.60;;
27839;SDS011;15207;42.182;24.308;2022-09-09T14:52:14;5.60;;;4.00;;
27839;SDS011;15207;42.182;24.308;2022-09-09T14:54:41;5.55;;;3.95;;
27839;SDS011;15207;42.182;24.308;2022-09-09T14:57:07;6.75;;;4.05;;
27839;SDS011;15207;42.182;24.308;2022-09-09T14:59:32;7.65;;;4.50;;
27839;SDS011;15207;42.182;24.308;2022-09-09T15:01:59;7.70;;;4.10;;
27839;SDS011;15207;42.182;24.308;2022-09-09T15:04:29;6.50;;;4.40;;
27839;SDS011;15207;42.182;24.308;2022-09-09T15:06:54;6.70;;;4.30;;
27839;SDS011;15207;42.182;24.308;2022-09-09T15:09:20;4.60;;;4.00;;
27839;SDS011;15207;42.182;24.308;2022-09-09T15:14:11;6.70;;;4.40;;
27839;SDS011;15207;42.182;24.308;2022-09-09T15:16:37;7.80;;;4.50;;
27839;SDS011;15207;42.182;24.308;2022-09-09T15:19:03;8.10;;;5.23;;
27839;SDS011;15207;42.182;24.308;2022-09-09T15:21:30;8.60;;;4.70;;
27839;SDS011;15207;42.182;24.308;2022-09-09T15:23:58;13.75;;;4.40;;
27839;SDS011;15207;42.182;24.308;2022-09-09T15:26:24;6.50;;;4.00;;
27839;SDS011;15207;42.182;24.308;2022-09-09T15:28:50;5.88;;;4.00;;
27839;SDS011;15207;42.182;24.308;2022-09-09T15:31:17;6.70;;;4.00;;
27839;SDS011;15207;42.182;24.308;2022-09-09T15:33:49;8.90;;;4.10;;
27839;SDS011;15207;42.182;24.308;2022-09-09T15:36:34;8.45;;;3.85;;
27839;SDS011;15207;42.182;24.308;2022-09-09T15:39:02;4.60;;;3.90;;
27839;SDS011;15207;42.182;24.308;2022-09-09T15:41:29;7.45;;;4.30;;
27839;SDS011;15207;42.182;24.308;2022-09-09T15:43:56;7.60;;;4.95;;
27839;SDS011;15207;42.182;24.308;2022-09-09T15:46:24;11.00;;;4.90;;
27839;SDS011;15207;42.182;24.308;2022-09-09T15:48:54;11.70;;;6.40;;
27839;SDS011;15207;42.182;24.308;2022-09-09T15:51:21;11.80;;;5.10;;
27839;SDS011;15207;42.182;24.308;2022-09-09T15:53:48;12.85;;;5.70;;
27839;SDS011;15207;42.182;24.308;2022-09-09T15:56:18;8.03;;;5.47;;
27839;SDS011;15207;42.182;24.308;2022-09-09T15:58:44;8.30;;;5.15;;
27839;SDS011;15207;42.182;24.308;2022-09-09T16:01:10;12.60;;;6.00;;
27839;SDS011;15207;42.182;24.308;2022-09-09T16:03:41;11.70;;;5.60;;
27839;SDS011;15207;42.182;24.308;2022-09-09T16:06:07;14.10;;;5.35;;
27839;SDS011;15207;42.182;24.308;2022-09-09T16:08:41;21.65;;;6.90;;
27839;SDS011;15207;42.182;24.308;2022-09-09T16:11:08;10.35;;;5.50;;
27839;SDS011;15207;42.182;24.308;2022-09-09T16:13:45;9.17;;;4.87;;
27839;SDS011;15207;42.182;24.308;2022-09-09T16:16:12;8.40;;;4.60;;
27839;SDS011;15207;42.182;24.308;2022-09-09T16:18:39;7.70;;;4.60;;
27839;SDS011;15207;42.182;24.308;2022-09-09T16:21:08;8.80;;;5.20;;
27839;SDS011;15207;42.182;24.308;2022-09-09T16:23:39;9.05;;;5.78;;
27839;SDS011;15207;42.182;24.308;2022-09-09T16:26:05;8.50;;;4.75;;
27839;SDS011;15207;42.182;24.308;2022-09-09T16:28:30;7.10;;;4.70;;
27839;SDS011;15207;42.182;24.308;2022-09-09T16:30:56;8.38;;;5.60;;
27839;SDS011;15207;42.182;24.308;2022-09-09T16:33:23;12.15;;;5.75;;
27839;SDS011;15207;42.182;24.308;2022-09-09T16:35:49;19.40;;;6.35;;
27839;SDS011;15207;42.182;24.308;2022-09-09T16:38:14;9.20;;;5.00;;
27839;SDS011;15207;42.182;24.308;2022-09-09T16:40:40;11.50;;;5.30;;
27839;SDS011;15207;42.182;24.308;2022-09-09T16:43:06;7.20;;;5.00;;
27839;SDS011;15207;42.182;24.308;2022-09-09T16:45:32;5.25;;;4.45;;
27839;SDS011;15207;42.182;24.308;2022-09-09T16:47:58;5.45;;;4.60;;
27839;SDS011;15207;42.182;24.308;2022-09-09T16:50:25;5.30;;;4.80;;
27839;SDS011;15207;42.182;24.308;2022-09-09T16:52:52;8.73;;;5.03;;
27839;SDS011;15207;42.182;24.308;2022-09-09T16:55:18;9.23;;;4.80;;
27839;SDS011;15207;42.182;24.308;2022-09-09T16:57:46;7.28;;;5.45;;
27839;SDS011;15207;42.182;24.308;2022-09-09T17:00:14;12.40;;;6.20;;
27839;SDS011;15207;42.182;24.308;2022-09-09T17:02:41;13.80;;;6.70;;
27839;SDS011;15207;42.182;24.308;2022-09-09T17:05:08;10.65;;;5.65;;
27839;SDS011;15207;42.182;24.308;2022-09-09T17:07:34;12.10;;;5.20;;
27839;SDS011;15207;42.182;24.308;2022-09-09T17:10:01;8.20;;;5.95;;
27839;SDS011;15207;42.182;24.308;2022-09-09T17:12:28;10.40;;;6.40;;
27839;SDS011;15207;42.182;24.308;2022-09-09T17:14:53;9.50;;;6.00;;
27839;SDS011;15207;42.182;24.308;2022-09-09T17:17:21;10.30;;;6.60;;
27839;SDS011;15207;42.182;24.308;2022-09-09T17:19:46;27.70;;;11.15;;
27839;SDS011;15207;42.182;24.308;2022-09-09T17:22:12;27.58;;;13.20;;
27839;SDS011;15207;42.182;24.308;2022-09-09T17:24:38;18.02;;;9.75;;
27839;SDS011;15207;42.182;24.308;2022-09-09T17:29:29;9.35;;;6.45;;
27839;SDS011;15207;42.182;24.308;2022-09-09T17:31:55;9.00;;;6.60;;
27839;SDS011;15207;42.182;24.308;2022-09-09T17:34:21;9.10;;;6.40;;
27839;SDS011;15207;42.182;24.308;2022-09-09T17:36:46;10.40;;;6.30;;
27839;SDS011;15207;42.182;24.308;2022-09-09T17:39:13;10.20;;;6.35;;
27839;SDS011;15207;42.182;24.308;2022-09-09T17:41:39;9.50;;;5.95;;
27839;SDS011;15207;42.182;24.308;2022-09-09T17:44:05;7.60;;;5.60;;
27839;SDS011;15207;42.182;24.308;2022-09-09T17:46:36;9.40;;;5.40;;
27839;SDS011;15207;42.182;24.308;2022-09-09T17:49:06;8.73;;;5.47;;
27839;SDS011;15207;42.182;24.308;2022-09-09T17:54:04;9.20;;;5.60;;
27839;SDS011;15207;42.182;24.308;2022-09-09T17:56:34;9.77;;;5.70;;
27839;SDS011;15207;42.182;24.308;2022-09-09T17:59:01;8.87;;;5.23;;
27839;SDS011;15207;42.182;24.308;2022-09-09T18:01:29;7.10;;;4.95;;
27839;SDS011;15207;42.182;24.308;2022-09-09T18:03:56;5.75;;;5.10;;
27839;SDS011;15207;42.182;24.308;2022-09-09T18:06:24;7.80;;;5.45;;
27839;SDS011;15207;42.182;24.308;2022-09-09T18:08:58;11.80;;;5.70;;
27839;SDS011;15207;42.182;24.308;2022-09-09T18:11:27;8.60;;;5.17;;
27839;SDS011;15207;42.182;24.308;2022-09-09T18:13:58;6.35;;;5.15;;
27839;SDS011;15207;42.182;24.308;2022-09-09T18:16:27;11.30;;;6.13;;
27839;SDS011;15207;42.182;24.308;2022-09-09T18:18:55;11.80;;;6.50;;